Time;durP1;ratioP1;P1;durP2;ratioP2;P2;SDS_P1;SDS_P2;PMS_P1;PMS_P2;Temp;Humidity;BMP_temperature;BMP_pressure;BME280_temperature;BME280_humidity;BME280_pressure;Samples;Min_cycle;Max_cycle;Signal;HPM_P1;HPM_P2
2020/12/13 00:00:33;;;;;;;14.98;5.88;;;7.90;90.50;;;;;;5067284;28;20048;-71
2020/12/13 00:02:59;;;;;;;15.20;6.25;;;8.00;90.30;;;;;;5065164;28;20511;-71
2020/12/13 00:05:26;;;;;;;16.60;6.03;;;7.90;90.20;;;;;;5064893;28;20035;-70
2020/12/13 00:07:55;;;;;;;15.02;5.80;;;7.90;90.20;;;;;;5058322;28;20037;-73
2020/12/13 00:10:22;;;;;;;16.27;5.30;;;7.90;90.30;;;;;;5062500;28;20037;-71
2020/12/13 00:12:48;;;;;;;14.02;5.10;;;7.90;90.30;;;;;;5063106;28;20483;-72
2020/12/13 00:15:13;;;;;;;13.77;5.20;;;7.90;90.10;;;;;;5064028;28;20035;-71
2020/12/13 00:17:39;;;;;;;15.68;5.20;;;8.00;89.90;;;;;;5066864;28;20055;-71
2020/12/13 00:20:06;;;;;;;12.00;4.80;;;7.90;89.70;;;;;;5059909;28;20056;-71
2020/12/13 00:22:32;;;;;;;12.63;5.53;;;7.90;89.70;;;;;;5067106;28;20471;-71
2020/12/13 00:24:58;;;;;;;17.25;5.00;;;7.90;89.80;;;;;;5059584;28;20068;-72
2020/12/13 00:27:23;;;;;;;14.02;5.13;;;7.90;89.80;;;;;;5063495;28;20479;-72
2020/12/13 00:29:49;;;;;;;15.77;5.80;;;7.90;89.70;;;;;;5063737;28;20037;-71
2020/12/13 00:32:14;;;;;;;12.50;5.53;;;7.90;89.60;;;;;;5063037;28;20032;-71
2020/12/13 00:34:40;;;;;;;14.55;5.55;;;7.90;89.50;;;;;;5064977;28;20107;-71
2020/12/13 00:37:06;;;;;;;15.20;5.80;;;7.90;89.30;;;;;;5060279;28;20036;-71
2020/12/13 00:39:34;;;;;;;13.00;5.70;;;7.90;89.40;;;;;;5065647;28;20033;-71
2020/12/13 00:42:00;;;;;;;14.07;5.53;;;7.80;89.50;;;;;;5061835;28;20081;-73
2020/12/13 00:44:25;;;;;;;14.40;5.63;;;7.90;89.40;;;;;;5063882;28;20087;-71
2020/12/13 00:46:51;;;;;;;13.90;7.47;;;7.90;89.40;;;;;;5065197;28;20059;-72
2020/12/13 00:49:17;;;;;;;17.80;6.82;;;7.90;89.30;;;;;;5064596;28;20494;-71
2020/12/13 00:51:43;;;;;;;13.98;5.97;;;7.90;89.40;;;;;;5065010;28;20037;-72
2020/12/13 00:54:08;;;;;;;18.02;6.55;;;7.90;89.50;;;;;;5060779;28;20044;-71
2020/12/13 00:56:34;;;;;;;12.02;6.57;;;7.80;89.50;;;;;;5065851;28;20033;-73
2020/12/13 00:59:00;;;;;;;18.42;7.90;;;7.90;89.30;;;;;;5066000;28;20391;-72
2020/12/13 01:01:26;;;;;;;13.30;6.13;;;7.80;89.20;;;;;;5062966;28;20074;-71
2020/12/13 01:03:51;;;;;;;12.40;6.75;;;7.80;89.30;;;;;;5061283;28;20037;-71
2020/12/13 01:06:21;;;;;;;17.73;6.30;;;7.90;89.00;;;;;;5050629;28;20128;-71
2020/12/13 01:08:47;;;;;;;16.65;6.32;;;7.90;88.90;;;;;;5062838;28;20040;-71
2020/12/13 01:11:13;;;;;;;14.05;6.13;;;7.90;89.00;;;;;;5054684;28;20044;-71
2020/12/13 01:13:38;;;;;;;18.15;5.72;;;7.90;89.00;;;;;;5063625;28;20112;-72
2020/12/13 01:16:04;;;;;;;13.07;5.97;;;7.90;88.80;;;;;;5064673;28;20113;-72
2020/12/13 01:18:29;;;;;;;16.90;6.22;;;7.90;88.80;;;;;;5069505;28;20048;-72
2020/12/13 01:20:55;;;;;;;11.98;5.72;;;7.80;89.00;;;;;;5065168;28;20040;-71
2020/12/13 01:23:21;;;;;;;12.73;5.20;;;7.90;89.20;;;;;;5064316;28;20028;-71
2020/12/13 01:25:46;;;;;;;14.70;6.03;;;7.80;89.10;;;;;;5067156;28;20345;-71
2020/12/13 01:28:12;;;;;;;12.05;5.10;;;7.80;89.10;;;;;;5068157;28;20124;-73
2020/12/13 01:30:37;;;;;;;11.25;5.55;;;7.80;89.40;;;;;;5066916;28;20487;-72
2020/12/13 01:33:03;;;;;;;16.20;5.75;;;7.80;89.20;;;;;;5058917;28;20027;-71
2020/12/13 01:35:29;;;;;;;16.90;5.68;;;7.80;89.20;;;;;;5064986;28;20472;-71
2020/12/13 01:37:54;;;;;;;16.77;5.38;;;7.80;89.20;;;;;;5060577;28;20033;-71
2020/12/13 01:40:20;;;;;;;14.45;5.38;;;7.80;89.00;;;;;;5060242;28;20595;-71
2020/12/13 01:42:46;;;;;;;14.40;5.40;;;7.80;89.10;;;;;;5059755;28;20035;-72
2020/12/13 01:45:21;;;;;;;12.85;5.35;;;7.80;89.00;;;;;;5056829;28;20119;-71
2020/12/13 01:47:49;;;;;;;;;;;7.80;89.10;;;;;;5065088;28;20025;-71
2020/12/13 01:50:37;;;;;;;14.63;5.32;;;7.80;89.20;;;;;;5058899;28;19970;-71
2020/12/13 01:53:15;;;;;;;15.52;6.32;;;7.80;89.00;;;;;;5066773;28;20036;-74
2020/12/13 01:55:46;;;;;;;14.55;6.03;;;7.80;89.10;;;;;;5069649;28;20035;-72
2020/12/13 01:58:26;;;;;;;14.00;5.57;;;7.80;89.00;;;;;;5063121;28;20024;-72
2020/12/13 02:00:55;;;;;;;15.98;6.20;;;7.80;89.10;;;;;;5059762;28;20108;-71
2020/12/13 02:03:23;;;;;;;17.27;5.78;;;7.80;89.10;;;;;;5063854;28;20082;-72
2020/12/13 02:06:02;;;;;;;15.35;6.30;;;7.80;89.10;;;;;;5068254;28;20090;-72
2020/12/13 02:08:40;;;;;;;16.35;6.15;;;7.80;89.20;;;;;;5063436;28;20040;-72
2020/12/13 02:11:10;;;;;;;14.75;5.60;;;7.70;89.20;;;;;;5056088;28;20056;-71
2020/12/13 02:13:39;;;;;;;13.90;5.85;;;7.80;89.10;;;;;;5065845;28;20507;-72
2020/12/13 02:16:06;;;;;;;13.18;5.13;;;7.80;88.90;;;;;;5066380;28;20060;-71
2020/12/13 02:18:33;;;;;;;11.90;5.45;;;7.70;88.90;;;;;;5068094;28;20494;-71
2020/12/13 02:20:58;;;;;;;10.85;4.93;;;7.70;89.00;;;;;;5053324;28;20021;-71
2020/12/13 02:23:24;;;;;;;12.38;5.35;;;7.70;88.80;;;;;;5062418;28;20032;-73
2020/12/13 02:25:50;;;;;;;14.68;5.70;;;7.70;88.80;;;;;;5051801;28;20484;-71
2020/12/13 02:28:16;;;;;;;11.70;4.90;;;7.70;88.70;;;;;;5061167;28;20041;-71
2020/12/13 02:30:42;;;;;;;10.40;5.18;;;7.70;88.80;;;;;;5063012;28;20033;-71
2020/12/13 02:33:08;;;;;;;13.80;5.55;;;7.70;88.80;;;;;;5060948;28;20514;-71
2020/12/13 02:35:33;;;;;;;12.27;5.10;;;7.70;88.90;;;;;;5068227;28;20032;-71
2020/12/13 02:37:59;;;;;;;11.73;5.07;;;7.70;88.90;;;;;;5058502;28;20040;-71
2020/12/13 02:40:25;;;;;;;10.95;5.20;;;7.70;88.80;;;;;;5055294;28;20021;-71
2020/12/13 02:42:51;;;;;;;12.52;6.20;;;7.70;88.80;;;;;;5060927;28;20029;-70
2020/12/13 02:45:16;;;;;;;13.77;5.53;;;7.70;88.90;;;;;;5062498;28;20064;-71
2020/12/13 02:47:42;;;;;;;14.82;6.22;;;7.70;89.10;;;;;;5062731;28;20056;-71
2020/12/13 02:50:07;;;;;;;12.80;5.05;;;7.60;89.10;;;;;;5062321;28;20027;-72
2020/12/13 02:52:33;;;;;;;13.60;5.05;;;7.60;89.20;;;;;;5065710;28;20135;-71
2020/12/13 02:54:59;;;;;;;15.10;5.30;;;7.60;89.10;;;;;;5063701;28;20040;-71
2020/12/13 02:57:24;;;;;;;11.05;5.30;;;7.60;89.30;;;;;;5066260;28;20029;-71
2020/12/13 02:59:50;;;;;;;10.75;4.53;;;7.60;89.40;;;;;;5068196;28;20097;-71
2020/12/13 03:02:16;;;;;;;15.15;5.53;;;7.60;89.30;;;;;;5064990;28;20045;-73
2020/12/13 03:04:41;;;;;;;15.88;5.10;;;7.60;89.20;;;;;;5065398;28;20036;-70
2020/12/13 03:07:09;;;;;;;13.00;4.70;;;7.60;89.40;;;;;;5063547;28;20043;-70
2020/12/13 03:09:35;;;;;;;11.65;4.40;;;7.60;89.20;;;;;;5067216;28;20025;-71
2020/12/13 03:12:01;;;;;;;11.35;4.57;;;7.60;89.20;;;;;;5061251;28;20430;-71
2020/12/13 03:14:27;;;;;;;12.27;4.57;;;7.50;89.20;;;;;;5061478;28;20045;-71
2020/12/13 03:16:52;;;;;;;9.52;4.55;;;7.50;89.30;;;;;;5067081;28;20063;-71
2020/12/13 03:19:18;;;;;;;12.80;4.28;;;7.60;89.30;;;;;;5067708;28;20028;-71
2020/12/13 03:21:44;;;;;;;14.15;4.60;;;7.50;89.20;;;;;;5063194;28;20032;-71
2020/12/13 03:24:11;;;;;;;9.95;4.20;;;7.50;89.20;;;;;;5062437;28;20037;-70
2020/12/13 03:26:36;;;;;;;14.60;4.10;;;7.50;89.10;;;;;;5063142;28;20025;-71
2020/12/13 03:29:02;;;;;;;12.55;4.80;;;7.50;89.10;;;;;;5065771;28;20099;-73
2020/12/13 03:31:28;;;;;;;13.15;4.93;;;7.50;89.20;;;;;;5061458;28;20036;-71
2020/12/13 03:33:53;;;;;;;16.02;5.53;;;7.40;89.20;;;;;;5064190;28;20081;-72
2020/12/13 03:36:19;;;;;;;11.95;5.10;;;7.40;89.20;;;;;;5060591;28;20079;-71
2020/12/13 03:38:44;;;;;;;11.82;4.78;;;7.40;89.30;;;;;;5058660;28;20120;-71
2020/12/13 03:41:10;;;;;;;12.63;4.97;;;7.40;89.40;;;;;;5063236;28;20024;-71
2020/12/13 03:43:36;;;;;;;16.48;5.18;;;7.40;89.40;;;;;;5062307;28;20472;-71
2020/12/13 03:46:01;;;;;;;12.05;4.82;;;7.40;89.30;;;;;;5063340;28;20429;-71
2020/12/13 03:48:27;;;;;;;14.45;5.32;;;7.40;89.40;;;;;;5056718;28;20385;-70
2020/12/13 03:50:53;;;;;;;12.77;4.65;;;7.40;89.50;;;;;;5058412;28;20039;-70
2020/12/13 03:53:18;;;;;;;11.98;4.80;;;7.30;89.50;;;;;;5058594;28;20487;-70
2020/12/13 03:55:44;;;;;;;12.93;5.50;;;7.30;89.60;;;;;;5061322;28;20090;-71
2020/12/13 03:58:10;;;;;;;22.27;5.78;;;7.30;89.50;;;;;;5051080;28;20029;-70
2020/12/13 04:00:36;;;;;;;11.27;5.38;;;7.30;89.60;;;;;;5055149;28;20514;-70
2020/12/13 04:03:04;;;;;;;14.82;5.70;;;7.20;89.80;;;;;;5054593;28;20095;-71
2020/12/13 04:05:31;;;;;;;16.88;6.18;;;7.30;89.60;;;;;;5057716;28;20503;-70
2020/12/13 04:07:56;;;;;;;16.48;6.00;;;7.20;89.60;;;;;;5063219;28;20541;-70
2020/12/13 04:10:23;;;;;;;16.33;5.45;;;7.20;89.70;;;;;;5058352;28;20033;-71
2020/12/13 04:12:48;;;;;;;15.55;5.65;;;7.20;89.70;;;;;;5057705;28;20033;-71
2020/12/13 04:15:14;;;;;;;11.32;5.40;;;7.20;89.70;;;;;;5058949;28;20033;-71
2020/12/13 04:17:40;;;;;;;15.63;6.20;;;7.20;89.70;;;;;;5058768;28;20059;-71
2020/12/13 04:20:07;;;;;;;13.32;5.97;;;7.20;89.70;;;;;;5053763;28;20373;-70
2020/12/13 04:22:33;;;;;;;11.65;5.50;;;7.10;89.60;;;;;;5054761;28;20033;-71
2020/12/13 04:24:59;;;;;;;13.25;5.50;;;7.10;89.60;;;;;;5058864;28;20077;-71
2020/12/13 04:27:25;;;;;;;13.55;5.55;;;7.10;89.50;;;;;;5058953;28;20321;-70
2020/12/13 04:29:51;;;;;;;14.35;5.32;;;7.10;89.40;;;;;;5059376;28;20498;-71
2020/12/13 04:32:16;;;;;;;13.48;5.55;;;7.10;89.50;;;;;;5060575;28;20041;-71
2020/12/13 04:34:42;;;;;;;13.80;5.22;;;7.10;89.40;;;;;;5058380;28;20033;-72
2020/12/13 04:37:09;;;;;;;13.07;5.38;;;7.10;89.50;;;;;;5056001;28;20543;-70
2020/12/13 04:39:35;;;;;;;15.13;5.82;;;7.00;89.60;;;;;;5051243;28;20041;-70
2020/12/13 04:42:03;;;;;;;14.60;5.32;;;6.90;89.70;;;;;;5065267;28;20415;-73
2020/12/13 04:44:30;;;;;;;17.05;6.20;;;6.90;89.70;;;;;;5064170;28;20127;-71
2020/12/13 04:47:02;;;;;;;13.23;6.07;;;6.90;89.70;;;;;;5059910;28;20036;-70
2020/12/13 04:49:30;;;;;;;17.20;5.75;;;6.80;89.60;;;;;;5052093;28;20161;-71
2020/12/13 04:51:58;;;;;;;14.55;5.57;;;6.70;89.70;;;;;;5059758;28;20384;-71
2020/12/13 04:54:25;;;;;;;16.92;5.93;;;6.60;89.80;;;;;;5055555;28;20047;-70
2020/12/13 04:56:52;;;;;;;18.50;5.93;;;6.60;90.00;;;;;;5068369;28;20483;-71
2020/12/13 04:59:18;;;;;;;11.32;5.72;;;6.50;90.20;;;;;;5063326;28;20170;-71
2020/12/13 05:01:45;;;;;;;14.77;6.35;;;6.40;90.30;;;;;;5056894;28;20498;-71
2020/12/13 05:04:11;;;;;;;14.35;5.65;;;6.40;90.40;;;;;;5058526;28;20040;-71
2020/12/13 05:06:39;;;;;;;14.15;5.50;;;6.30;90.50;;;;;;5069153;28;20036;-71
2020/12/13 05:09:09;;;;;;;18.52;7.05;;;6.20;90.60;;;;;;5065392;28;20094;-70
2020/12/13 05:11:42;;;;;;;15.25;6.60;;;6.10;90.70;;;;;;5070392;28;20043;-71
2020/12/13 05:14:08;;;;;;;18.08;6.35;;;6.10;90.80;;;;;;5055251;28;20033;-70
2020/12/13 05:16:34;;;;;;;15.80;6.22;;;6.10;90.90;;;;;;5057850;28;20082;-71
2020/12/13 05:18:59;;;;;;;15.27;6.18;;;6.10;91.00;;;;;;5057802;28;20033;-71
2020/12/13 05:21:26;;;;;;;17.73;7.10;;;6.00;91.10;;;;;;5058874;28;20035;-71
2020/12/13 05:23:51;;;;;;;16.23;6.32;;;5.90;91.10;;;;;;5068170;28;20111;-70
2020/12/13 05:26:21;;;;;;;15.15;6.75;;;5.90;91.10;;;;;;5057479;28;20120;-72
2020/12/13 05:28:51;;;;;;;14.57;6.70;;;5.80;91.30;;;;;;5054649;28;20063;-70
2020/12/13 05:31:20;;;;;;;13.40;6.25;;;5.80;91.30;;;;;;5065261;28;20032;-71
2020/12/13 05:33:52;;;;;;;12.25;6.30;;;5.70;91.40;;;;;;5055478;28;20442;-71
2020/12/13 05:36:18;;;;;;;13.18;6.53;;;5.70;91.40;;;;;;5051580;28;20033;-71
2020/12/13 05:38:45;;;;;;;13.35;6.05;;;5.60;91.40;;;;;;5058835;28;20073;-70
2020/12/13 05:41:13;;;;;;;14.13;6.78;;;5.60;91.50;;;;;;5063357;28;20064;-70
2020/12/13 05:46:42;;;;;;;14.45;5.63;;;5.50;91.60;;;;;;5055855;28;20036;-70
2020/12/13 05:51:39;;;;;;;14.85;6.43;;;5.40;91.80;;;;;;5056756;28;20040;-70
2020/12/13 05:54:20;;;;;;;20.52;8.07;;;5.30;91.80;;;;;;5058515;28;20483;-70
2020/12/13 05:57:00;;;;;;;12.10;6.57;;;5.30;92.00;;;;;;5057714;28;20036;-71
2020/12/13 05:59:29;;;;;;;17.15;6.15;;;5.20;92.00;;;;;;5057837;28;20666;-72
2020/12/13 06:02:00;;;;;;;15.13;6.40;;;5.30;92.10;;;;;;5061651;28;20029;-70
2020/12/13 06:04:31;;;;;;;17.58;6.97;;;5.20;92.10;;;;;;5058918;28;20032;-70
2020/12/13 06:06:59;;;;;;;16.42;6.75;;;5.20;92.20;;;;;;5054721;28;20034;-70
2020/12/13 06:09:35;;;;;;;14.25;6.57;;;5.10;92.30;;;;;;5065157;28;20027;-70
2020/12/13 06:12:05;;;;;;;14.13;6.35;;;5.10;92.20;;;;;;5059629;28;20033;-74
2020/12/13 06:14:33;;;;;;;17.25;6.45;;;5.10;92.20;;;;;;5059604;28;20039;-70
2020/12/13 06:17:00;;;;;;;16.70;6.82;;;5.10;92.20;;;;;;5047686;28;20052;-70
2020/12/13 06:19:30;;;;;;;16.95;6.72;;;5.10;92.20;;;;;;5036675;28;20033;-71
2020/12/13 06:21:58;;;;;;;17.50;6.93;;;5.10;92.20;;;;;;5040766;28;20025;-70
2020/12/13 06:24:24;;;;;;;14.80;6.30;;;5.00;92.20;;;;;;5040621;28;20130;-70
2020/12/13 06:26:51;;;;;;;14.30;6.28;;;5.00;92.30;;;;;;5042120;28;20040;-70
2020/12/13 06:29:20;;;;;;;13.60;5.43;;;5.00;92.30;;;;;;5042212;28;20041;-70
2020/12/13 06:31:46;;;;;;;17.70;7.25;;;5.00;92.40;;;;;;5037215;28;20038;-71
2020/12/13 06:34:12;;;;;;;18.33;6.00;;;4.90;92.40;;;;;;5048741;28;20044;-71
2020/12/13 06:36:38;;;;;;;18.10;7.15;;;4.90;92.50;;;;;;5040978;28;20044;-72
2020/12/13 06:39:15;;;;;;;12.77;5.85;;;4.90;92.50;;;;;;5052954;28;20029;-70
2020/12/13 06:41:47;;;;;;;14.68;6.53;;;4.90;92.50;;;;;;5058736;28;20479;-72
2020/12/13 06:44:14;;;;;;;16.40;6.75;;;4.90;92.50;;;;;;5045340;28;20124;-71
2020/12/13 06:46:42;;;;;;;12.98;6.72;;;4.90;92.60;;;;;;5037973;28;20032;-71
2020/12/13 06:49:10;;;;;;;17.35;6.20;;;4.90;92.60;;;;;;5045749;28;20032;-71
2020/12/13 06:51:38;;;;;;;14.95;6.38;;;4.80;92.60;;;;;;5039528;28;20713;-70
2020/12/13 06:54:12;;;;;;;15.32;6.80;;;4.80;92.50;;;;;;5053784;28;20463;-71
2020/12/13 06:56:39;;;;;;;15.43;6.35;;;4.80;92.60;;;;;;5040040;28;20097;-70
2020/12/13 06:59:07;;;;;;;21.45;7.07;;;4.80;92.50;;;;;;5038279;28;20036;-71
2020/12/13 07:01:43;;;;;;;16.05;6.90;;;4.80;92.60;;;;;;5036590;28;20034;-70
2020/12/13 07:04:21;;;;;;;18.88;6.50;;;4.80;92.70;;;;;;5041880;28;20067;-70
2020/12/13 07:06:47;;;;;;;16.00;7.00;;;4.80;92.50;;;;;;5037559;28;20048;-72
2020/12/13 07:09:14;;;;;;;21.67;8.00;;;4.70;92.60;;;;;;5040944;28;20049;-72
2020/12/13 07:11:44;;;;;;;17.65;7.13;;;4.70;92.50;;;;;;5037086;28;20056;-70
2020/12/13 07:14:13;;;;;;;13.95;6.53;;;4.70;92.60;;;;;;5042986;28;20045;-70
2020/12/13 07:16:44;;;;;;;17.05;6.97;;;4.70;92.60;;;;;;5044115;28;20040;-70
2020/12/13 07:19:14;;;;;;;16.23;6.63;;;4.70;92.70;;;;;;5035512;28;20032;-71
2020/12/13 07:21:41;;;;;;;22.52;13.10;;;4.70;92.70;;;;;;5034872;28;20025;-70
2020/12/13 07:24:07;;;;;;;21.23;15.27;;;4.60;92.70;;;;;;5035446;28;20128;-70
2020/12/13 07:26:35;;;;;;;16.63;11.32;;;4.60;92.70;;;;;;5029104;28;20103;-70
2020/12/13 07:29:04;;;;;;;24.25;16.20;;;4.70;92.70;;;;;;5039678;28;20040;-70
2020/12/13 07:31:37;;;;;;;26.73;18.63;;;4.60;92.60;;;;;;5038873;28;20040;-70
2020/12/13 07:34:06;;;;;;;20.58;12.10;;;4.60;92.60;;;;;;5040833;28;20064;-70
2020/12/13 07:36:33;;;;;;;18.20;12.77;;;4.60;92.60;;;;;;5043904;28;20052;-71
2020/12/13 07:39:02;;;;;;;23.13;10.30;;;4.60;92.70;;;;;;5040334;28;20033;-71
2020/12/13 07:41:28;;;;;;;18.50;10.43;;;4.60;92.60;;;;;;5041358;28;20029;-70
2020/12/13 07:44:05;;;;;;;21.40;12.07;;;4.60;92.60;;;;;;5040749;28;20695;-70
2020/12/13 07:46:32;;;;;;;22.48;12.20;;;4.60;92.60;;;;;;5040499;28;20439;-70
2020/12/13 07:49:14;;;;;;;22.00;10.35;;;4.60;92.40;;;;;;5039637;28;20380;-70
2020/12/13 07:51:42;;;;;;;16.88;9.63;;;4.60;92.40;;;;;;5038115;28;20040;-70
2020/12/13 07:54:09;;;;;;;19.40;9.52;;;4.60;92.30;;;;;;5039437;28;20037;-70
2020/12/13 07:56:35;;;;;;;18.27;10.48;;;4.50;92.40;;;;;;5041292;28;20136;-70
2020/12/13 07:59:12;;;;;;;17.40;10.35;;;4.50;92.50;;;;;;5030569;28;20396;-71
2020/12/13 08:01:38;;;;;;;18.58;10.48;;;4.60;92.50;;;;;;5045855;28;20037;-72
2020/12/13 08:04:04;;;;;;;19.33;9.45;;;4.60;92.50;;;;;;5038608;28;20033;-72
2020/12/13 08:06:30;;;;;;;17.88;9.65;;;4.50;92.50;;;;;;5039454;28;20109;-71
2020/12/13 08:08:56;;;;;;;19.80;9.30;;;4.60;92.40;;;;;;5042820;28;20112;-70
2020/12/13 08:11:22;;;;;;;19.25;8.93;;;4.60;92.40;;;;;;5041236;28;20094;-70
2020/12/13 08:13:55;;;;;;;21.67;10.18;;;4.60;92.30;;;;;;5042294;28;20086;-70
2020/12/13 08:16:27;;;;;;;18.88;8.35;;;4.60;92.30;;;;;;5039525;28;20045;-71
2020/12/13 08:18:55;;;;;;;19.33;9.20;;;4.60;92.30;;;;;;5041956;28;20041;-70
2020/12/13 08:21:34;;;;;;;16.77;8.45;;;4.60;92.20;;;;;;5040404;28;20502;-73
2020/12/13 08:24:03;;;;;;;21.33;9.98;;;4.60;92.20;;;;;;5036088;28;20037;-71
2020/12/13 08:26:29;;;;;;;21.15;9.45;;;4.60;92.20;;;;;;5039639;28;20045;-71
2020/12/13 08:28:57;;;;;;;18.23;9.00;;;4.60;92.10;;;;;;5044652;28;20122;-72
2020/12/13 08:31:28;;;;;;;16.58;8.13;;;4.60;92.10;;;;;;5042898;28;20041;-73
2020/12/13 08:34:05;;;;;;;16.08;8.07;;;4.70;91.90;;;;;;5041417;28;20037;-72
2020/12/13 08:36:31;;;;;;;20.38;8.32;;;4.60;91.80;;;;;;5058357;28;20044;-71
2020/12/13 08:39:08;;;;;;;22.77;9.50;;;4.60;91.80;;;;;;5060435;28;20566;-71
2020/12/13 08:41:34;;;;;;;17.90;7.68;;;4.60;91.80;;;;;;5052074;28;20044;-72
2020/12/13 08:44:00;;;;;;;17.77;8.85;;;4.70;91.90;;;;;;5064388;28;20025;-72
2020/12/13 08:46:37;;;;;;;22.10;9.98;;;4.70;91.60;;;;;;5056129;28;20511;-71
2020/12/13 08:49:04;;;;;;;20.60;11.27;;;4.80;91.50;;;;;;5061317;28;20760;-71
2020/12/13 08:51:30;;;;;;;26.63;16.35;;;4.90;91.40;;;;;;5055410;28;20036;-70
2020/12/13 08:54:02;;;;;;;31.00;15.40;;;4.90;91.20;;;;;;5054549;28;20049;-71
2020/12/13 08:56:36;;;;;;;29.48;15.00;;;5.00;91.20;;;;;;5058756;28;20052;-71
2020/12/13 08:59:03;;;;;;;24.70;10.50;;;5.00;91.00;;;;;;5061306;28;20159;-72
2020/12/13 09:01:37;;;;;;;24.75;14.38;;;5.10;90.70;;;;;;5056027;28;20165;-71
2020/12/13 09:04:20;;;;;;;26.48;11.90;;;5.10;90.80;;;;;;5050365;28;20040;-71
2020/12/13 09:06:58;;;;;;;21.30;9.80;;;5.20;90.70;;;;;;5058613;28;20742;-72
2020/12/13 09:09:32;;;;;;;17.10;9.13;;;5.30;90.70;;;;;;5054293;28;20434;-71
2020/12/13 09:12:15;;;;;;;17.50;9.70;;;5.50;90.40;;;;;;5052608;28;20583;-70
2020/12/13 09:14:41;;;;;;;23.83;9.20;;;5.60;89.80;;;;;;5052342;28;20119;-71
2020/12/13 09:17:07;;;;;;;18.08;9.95;;;5.60;89.20;;;;;;5057849;28;20847;-71
2020/12/13 09:19:32;;;;;;;26.15;9.77;;;5.70;89.10;;;;;;5048035;28;20400;-73
2020/12/13 09:22:00;;;;;;;17.08;8.85;;;5.60;89.00;;;;;;5057592;28;20035;-71
2020/12/13 09:24:33;;;;;;;22.25;10.90;;;5.60;88.90;;;;;;5058891;28;20032;-70
2020/12/13 09:27:11;;;;;;;17.30;11.20;;;5.60;88.80;;;;;;5056207;28;20056;-69
2020/12/13 09:29:38;;;;;;;19.40;10.45;;;5.60;89.00;;;;;;5053052;28;20037;-72
2020/12/13 09:32:07;;;;;;;18.63;8.80;;;5.60;89.00;;;;;;5050845;28;20036;-77
2020/12/13 09:34:33;;;;;;;16.45;9.02;;;5.70;88.90;;;;;;5056052;28;20097;-74
2020/12/13 09:36:58;;;;;;;20.58;9.65;;;5.70;88.90;;;;;;5057226;28;20082;-76
2020/12/13 09:39:24;;;;;;;19.15;9.00;;;5.80;88.70;;;;;;5060098;28;20111;-74
2020/12/13 09:41:53;;;;;;;18.17;8.10;;;5.90;88.60;;;;;;5060291;28;20032;-72
2020/12/13 09:44:18;;;;;;;19.95;8.18;;;5.80;88.50;;;;;;5058784;28;20357;-70
2020/12/13 09:46:44;;;;;;;13.63;6.85;;;5.90;88.60;;;;;;5061360;28;20037;-73
2020/12/13 09:49:09;;;;;;;13.45;6.80;;;5.90;88.40;;;;;;5059708;28;20463;-74
2020/12/13 09:51:35;;;;;;;18.50;7.50;;;6.00;88.30;;;;;;5056917;28;20044;-73
2020/12/13 09:54:01;;;;;;;15.85;6.90;;;6.10;88.30;;;;;;5054093;28;20041;-75
2020/12/13 09:56:26;;;;;;;16.35;6.57;;;6.10;88.30;;;;;;5053663;28;20053;-73
2020/12/13 09:58:52;;;;;;;19.75;7.90;;;6.10;88.20;;;;;;5053125;28;20033;-75
2020/12/13 10:01:17;;;;;;;13.38;7.15;;;6.10;88.40;;;;;;5060519;28;20211;-74
2020/12/13 10:03:47;;;;;;;13.57;6.50;;;6.10;88.20;;;;;;5062309;28;20032;-78
2020/12/13 10:06:29;;;;;;;18.83;7.00;;;6.10;88.00;;;;;;5057035;28;20028;-76
2020/12/13 10:11:20;;;;;;;14.73;7.63;;;6.20;88.00;;;;;;5055792;28;20579;-77
2020/12/13 10:13:46;;;;;;;13.88;7.97;;;6.20;87.90;;;;;;5056950;28;20426;-78
2020/12/13 10:16:14;;;;;;;16.02;7.47;;;6.20;87.90;;;;;;5057158;28;20045;-76
2020/12/13 10:18:40;;;;;;;20.23;8.27;;;6.30;87.90;;;;;;5059996;28;20044;-76
2020/12/13 10:21:05;;;;;;;17.88;7.72;;;6.30;87.90;;;;;;5053822;28;20063;-79
2020/12/13 10:23:31;;;;;;;15.85;7.53;;;6.20;87.80;;;;;;5062347;28;20480;-75
2020/12/13 10:25:57;;;;;;;20.77;8.50;;;6.40;87.90;;;;;;5057854;28;20511;-76
2020/12/13 10:28:22;;;;;;;15.55;8.73;;;6.40;87.50;;;;;;5059282;28;20086;-77
2020/12/13 10:30:52;;;;;;;17.20;8.98;;;6.40;87.70;;;;;;5061090;28;20135;-78
2020/12/13 10:33:17;;;;;;;16.55;7.97;;;6.50;87.70;;;;;;5060427;28;20028;-77
2020/12/13 10:35:44;;;;;;;16.08;7.95;;;6.50;87.60;;;;;;5062869;28;20066;-79
2020/12/13 10:38:10;;;;;;;18.08;8.07;;;6.60;87.30;;;;;;5059201;28;20032;-75
2020/12/13 10:40:37;;;;;;;14.77;7.60;;;6.60;87.00;;;;;;5059391;28;20033;-75
2020/12/13 10:43:03;;;;;;;18.83;8.38;;;6.60;87.10;;;;;;5051496;28;20031;-76
2020/12/13 10:45:29;;;;;;;18.40;7.78;;;6.50;87.30;;;;;;5055288;28;20072;-80
2020/12/13 10:47:55;;;;;;;18.17;8.60;;;6.50;87.00;;;;;;5060551;28;20125;-77
2020/12/13 10:50:20;;;;;;;19.15;12.57;;;6.50;87.00;;;;;;5060258;28;20458;-75
2020/12/13 10:52:46;;;;;;;22.23;12.55;;;6.50;87.40;;;;;;5061541;28;20041;-76
2020/12/13 10:55:12;;;;;;;19.88;8.18;;;6.50;87.30;;;;;;5056710;28;20483;-76
2020/12/13 10:57:37;;;;;;;18.70;8.68;;;6.50;87.30;;;;;;5062752;28;20059;-76
2020/12/13 11:00:04;;;;;;;19.92;8.20;;;6.40;87.20;;;;;;5057677;28;20032;-76
2020/12/13 11:02:30;;;;;;;20.70;8.63;;;6.40;87.50;;;;;;5060478;28;20499;-76
2020/12/13 11:04:55;;;;;;;18.02;7.93;;;6.40;87.60;;;;;;5057814;28;20040;-75
2020/12/13 11:07:21;;;;;;;16.42;7.85;;;6.50;87.60;;;;;;5063496;28;20390;-75
2020/12/13 11:09:47;;;;;;;17.65;7.18;;;6.40;87.50;;;;;;5068218;28;20029;-76
2020/12/13 11:12:12;;;;;;;13.60;7.35;;;6.50;87.10;;;;;;5059018;28;20063;-76
2020/12/13 11:14:38;;;;;;;16.58;8.80;;;6.50;87.20;;;;;;5059107;28;20064;-76
2020/12/13 11:17:04;;;;;;;19.27;7.90;;;6.60;87.50;;;;;;5060968;28;20036;-75
2020/12/13 11:19:29;;;;;;;17.90;7.55;;;6.70;87.10;;;;;;5057468;28;20115;-76
2020/12/13 11:21:57;;;;;;;13.80;7.80;;;6.80;87.00;;;;;;5060396;28;20115;-75
2020/12/13 11:24:23;;;;;;;16.15;8.15;;;6.80;86.70;;;;;;5064160;28;20108;-75
2020/12/13 11:26:48;;;;;;;19.73;7.70;;;6.90;86.50;;;;;;5064559;28;20135;-76
2020/12/13 11:29:14;;;;;;;16.80;8.25;;;7.00;85.90;;;;;;5061236;28;20372;-75
2020/12/13 11:31:40;;;;;;;16.63;7.82;;;7.00;86.00;;;;;;5064141;28;20036;-76
2020/12/13 11:34:06;;;;;;;17.13;7.22;;;7.00;85.80;;;;;;5061285;28;20028;-75
2020/12/13 11:36:32;;;;;;;13.40;6.57;;;6.90;85.80;;;;;;5063022;28;20040;-75
2020/12/13 11:38:58;;;;;;;15.90;7.32;;;6.80;86.10;;;;;;5063042;28;20403;-75
2020/12/13 11:41:28;;;;;;;16.83;7.30;;;6.80;86.20;;;;;;5057147;28;20043;-75
2020/12/13 11:43:55;;;;;;;16.65;7.15;;;7.10;86.20;;;;;;5065122;28;20489;-75
2020/12/13 11:46:20;;;;;;;17.70;8.30;;;7.20;85.90;;;;;;5062786;28;20111;-75
2020/12/13 11:48:46;;;;;;;17.33;7.60;;;7.40;85.30;;;;;;5062443;28;20128;-75
2020/12/13 11:51:12;;;;;;;20.33;7.57;;;7.60;84.90;;;;;;5061653;28;20033;-75
2020/12/13 11:53:38;;;;;;;14.35;6.75;;;7.70;84.40;;;;;;5062356;28;20044;-78
2020/12/13 11:56:04;;;;;;;14.45;6.90;;;7.90;83.70;;;;;;5064905;28;20028;-79
2020/12/13 11:58:30;;;;;;;20.73;7.68;;;7.80;83.10;;;;;;5063389;28;20033;-75
2020/12/13 12:00:55;;;;;;;21.35;7.72;;;7.80;83.30;;;;;;5061238;28;20037;-75
2020/12/13 12:03:21;;;;;;;20.38;6.93;;;8.00;83.10;;;;;;5060377;28;20028;-75
2020/12/13 12:05:47;;;;;;;19.15;7.13;;;8.00;82.90;;;;;;5060436;28;20041;-75
2020/12/13 12:08:12;;;;;;;18.77;7.43;;;8.20;82.50;;;;;;5061480;28;20380;-75
2020/12/13 12:10:38;;;;;;;21.65;8.82;;;8.10;82.30;;;;;;5062310;28;20483;-75
2020/12/13 12:13:04;;;;;;;20.20;7.70;;;8.00;82.40;;;;;;5059008;28;20047;-76
2020/12/13 12:15:29;;;;;;;24.20;8.45;;;7.90;82.80;;;;;;5060605;28;20044;-75
2020/12/13 12:17:55;;;;;;;24.38;8.32;;;7.90;83.00;;;;;;5059914;28;20494;-75
2020/12/13 12:20:26;;;;;;;20.17;9.32;;;7.80;83.10;;;;;;5061181;28;20471;-78
2020/12/13 12:22:56;;;;;;;19.65;8.82;;;7.70;83.50;;;;;;5046474;28;20105;-82
2020/12/13 12:25:21;;;;;;;20.75;8.65;;;7.70;83.90;;;;;;5048077;28;20029;-78
2020/12/13 12:27:47;;;;;;;23.33;8.55;;;7.60;83.80;;;;;;5045601;28;20715;-75
2020/12/13 12:30:13;;;;;;;16.83;7.10;;;7.70;83.90;;;;;;5049386;28;20064;-79
2020/12/13 12:32:39;;;;;;;18.88;7.15;;;7.70;83.70;;;;;;5049059;28;20101;-75
2020/12/13 12:35:05;;;;;;;15.48;7.13;;;7.70;83.90;;;;;;5046240;28;20476;-79
2020/12/13 12:37:32;;;;;;;19.20;7.60;;;7.70;83.80;;;;;;5045291;28;20487;-76
2020/12/13 12:39:57;;;;;;;18.92;7.30;;;7.70;83.50;;;;;;5046377;28;20029;-79
2020/12/13 12:42:23;;;;;;;17.67;7.07;;;7.70;83.90;;;;;;5049356;28;20093;-75
2020/12/13 12:44:49;;;;;;;19.27;7.75;;;7.70;83.50;;;;;;5054546;28;20487;-77
2020/12/13 12:47:15;;;;;;;17.27;7.05;;;7.70;83.90;;;;;;5057480;28;20051;-76
2020/12/13 12:49:41;;;;;;;17.33;6.68;;;7.70;83.50;;;;;;5046529;28;20025;-76
2020/12/13 12:52:07;;;;;;;15.27;6.93;;;7.60;83.90;;;;;;5054384;28;20033;-76
2020/12/13 12:54:32;;;;;;;18.15;6.40;;;7.60;84.10;;;;;;5054334;28;20045;-80